Vision of The Seas — C6SE8 — position and weather

sailwx.info

Track history (hours):
 
Tides and Currents Weather Stations Pressure Air Temp Water Temp Dewpoint Dewpoint Depression Visibility Wind Speed Wind Dir Waves Ship Positions

Vision of The Seas

Operator: Royal Caribbean Cruises Ltd

Last reported at 2019-Oct-14 22:39 UTC. Time now 2019-Oct-23 00:22 UTC.
Position N 25°30' W 079°55'.
Warning: this ship's position is 8 days out of date.

Type: Passenger vessel. MMSI: 311321000.

Date/timePositionNaut miles runAvg speedWind from/ knotsBaromVisibWave heightAir tempDewpointWater temp
2019-Oct-14 22:39N 25°30' W 079°55'318.0
2019-Oct-14 22:30N 25°33' W 079°56'917.7
2019-Oct-14 22:00N 25°41' W 079°60'713.5
2019-Oct-14 21:31N 25°46' W 080°05'5 9.3
2019-Oct-14 21:00N 25°47' W 080°10'1 1.7
2019-Oct-14 20:30N 25°47' W 080°11'0 0.0
2019-Oct-14 20:00N 25°47' W 080°11'0 0.0
2019-Oct-14 19:30N 25°47' W 080°11'0 0.0
2019-Oct-14 19:00N 25°47' W 080°11'0 0.0
2019-Oct-14 18:30N 25°47' W 080°11'0 0.0
2019-Oct-14 18:00N 25°47' W 080°11'0 0.0
2019-Oct-14 17:30N 25°47' W 080°11'0 0.0
2019-Oct-14 17:00N 25°47' W 080°11'0 0.0
2019-Oct-14 16:30N 25°47' W 080°11'0 0.0
2019-Oct-14 16:00N 25°47' W 080°11'0 0.0
2019-Oct-14 15:30N 25°47' W 080°11'0 0.0
2019-Oct-14 15:00N 25°47' W 080°11'0 0.0
2019-Oct-14 14:27N 25°47' W 080°11'0 0.0
2019-Oct-14 14:00N 25°47' W 080°11'0 0.0
2019-Oct-14 13:30N 25°47' W 080°11'0 0.0
2019-Oct-14 13:00N 25°47' W 080°11'0 0.0
2019-Oct-14 12:30N 25°47' W 080°11'0 0.0
2019-Oct-14 12:00N 25°47' W 080°11'0 0.0
2019-Oct-14 11:30N 25°47' W 080°11'0 0.0
2019-Oct-14 11:00N 25°47' W 080°11'0 0.0
2019-Oct-14 10:30N 25°47' W 080°11'0 0.0
2019-Oct-14 10:00N 25°47' W 080°11'0 0.0
2019-Oct-14 09:30N 25°47' W 080°11'1 2.4
2019-Oct-14 09:00N 25°46' W 080°09'5 9.5
2019-Oct-14 08:30N 25°46' W 080°04'5 9.1
2019-Oct-14 08:00N 25°44' W 079°60'815.6
2019-Oct-14 07:30N 25°36' W 079°58'815.1
2019-Oct-14 07:00N 25°29' W 079°55'49213.5
2019-Oct-12 18:32N 20°29' W 086°59'0 0.0
2019-Oct-12 18:29N 20°29' W 086°59'0 0.0
2019-Oct-12 17:59N 20°29' W 086°59'0 0.0
2019-Oct-12 17:29N 20°29' W 086°59'0 0.0
2019-Oct-12 16:59N 20°29' W 086°59'0 0.0
2019-Oct-12 16:29N 20°29' W 086°59'0 0.0
2019-Oct-12 15:59N 20°29' W 086°59'0 0.0
2019-Oct-12 15:29N 20°29' W 086°59'0 0.0
2019-Oct-12 14:59N 20°29' W 086°59'0 0.0
2019-Oct-12 14:29N 20°29' W 086°59'0 0.0
2019-Oct-12 13:59N 20°29' W 086°59'0 0.0
2019-Oct-12 13:29N 20°29' W 086°59'0 0.0
2019-Oct-12 12:59N 20°29' W 086°59'0 0.0
2019-Oct-12 12:29N 20°29' W 086°59'0 0.0
2019-Oct-12 11:56N 20°29' W 086°59'0 0.5
2019-Oct-12 11:30N 20°29' W 086°59'4 8.4
2019-Oct-12 11:00N 20°33' W 086°59'611.9
2019-Oct-12 10:30N 20°38' W 086°55'34414.0
2019-Oct-11 10:00N 24°00' W 081°54'13512.0 030 / 111012.010.8 26.0
2019-Oct-10 22:43N 25°27' W 080°00'313.7
2019-Oct-10 22:29N 25°30' W 080°00'714.3
2019-Oct-10 22:01N 25°37' W 080°00'713.7
2019-Oct-10 21:30N 25°44' W 080°02'511.0
2019-Oct-10 21:01N 25°46' W 080°08'3 6.0
2019-Oct-10 20:31N 25°47' W 080°11'0 0.8
2019-Oct-10 20:00N 25°47' W 080°11'0 0.0
2019-Oct-10 19:30N 25°47' W 080°11'0 0.0
2019-Oct-10 19:00N 25°47' W 080°11'0 0.0
2019-Oct-10 18:30N 25°47' W 080°11'0 0.0
2019-Oct-10 18:00N 25°47' W 080°11'0 0.0
2019-Oct-10 17:30N 25°47' W 080°11'0 0.0
2019-Oct-10 17:00N 25°47' W 080°11'0 0.0
2019-Oct-10 16:30N 25°47' W 080°11'0 0.0
2019-Oct-10 16:00N 25°47' W 080°11'0 0.0
2019-Oct-10 15:30N 25°47' W 080°11'0 0.0
2019-Oct-10 15:00N 25°47' W 080°11'0 0.0
2019-Oct-10 14:30N 25°47' W 080°11'0 0.0
2019-Oct-10 14:00N 25°47' W 080°11'0 0.0
2019-Oct-10 13:30N 25°47' W 080°11'0 0.0
2019-Oct-10 13:00N 25°47' W 080°11'0 0.0
2019-Oct-10 12:30N 25°47' W 080°11'0 0.0
2019-Oct-10 12:00N 25°47' W 080°11'0 0.0
2019-Oct-10 11:30N 25°47' W 080°11'0 0.0
2019-Oct-10 11:00N 25°47' W 080°11'0 0.0
2019-Oct-10 10:30N 25°47' W 080°11'0 0.0
2019-Oct-10 10:00N 25°47' W 080°11'0 0.0
2019-Oct-10 09:30N 25°47' W 080°11'0 0.0
2019-Oct-10 09:00N 25°47' W 080°11'0 0.0
2019-Oct-10 08:30N 25°47' W 080°11'2 3.5
2019-Oct-10 08:00N 25°46' W 080°09'510.0
2019-Oct-10 07:31N 25°47' W 080°03'611.3
2019-Oct-10 07:00N 25°49' W 079°58'713.8
2019-Oct-10 06:30N 25°53' W 079°51'714.5
2019-Oct-10 06:00N 25°57' W 079°45'815.6
2019-Oct-10 05:30N 26°01' W 079°37'917.9
2019-Oct-10 05:00N 26°06' W 079°29'3718.5
2019-Oct-10 03:00N 26°12' W 078°48'122 6.8 210 / 61015.0 25.023.6
2019-Oct-09 09:00N 25°42' W 076°36'39917.4 190 / 141014.010.8 26.024.6
2019-Oct-08 10:00N 26°54' W 069°18'18423.0 140 / 151017.010.8 25.0
2019-Oct-08 02:00N 27°24' W 065°54'79319.3 120 / 211019.0 5.4 25.023.6
2019-Oct-06 09:00N 29°48' W 051°06'49819.9 240 / 141014.010.8 26.024.6
2019-Oct-05 08:00N 31°12' W 041°36'   220 / 241020.010.8 23.0
Track history (hours):
 
Tides and Currents Weather Stations Pressure Air Temp Water Temp Dewpoint Dewpoint Depression Visibility Wind Speed Wind Dir Waves Ship Positions

Vision of The Seas

Operator: Royal Caribbean Cruises Ltd

Last reported at 2019-Oct-14 22:39 UTC. Time now 2019-Oct-23 00:22 UTC.
Position N 25°30' W 079°55'.
Warning: this ship's position is 8 days out of date.

Type: Passenger vessel. MMSI: 311321000.

Date/timePositionNaut miles runAvg speedWind from/ knotsBaromVisibWave heightAir tempDewpointWater temp
2019-Oct-14 22:39N 25°30' W 079°55'318.0
2019-Oct-14 22:30N 25°33' W 079°56'917.7
2019-Oct-14 22:00N 25°41' W 079°60'713.5
2019-Oct-14 21:31N 25°46' W 080°05'5 9.3
2019-Oct-14 21:00N 25°47' W 080°10'1 1.7
2019-Oct-14 20:30N 25°47' W 080°11'0 0.0
2019-Oct-14 20:00N 25°47' W 080°11'0 0.0
2019-Oct-14 19:30N 25°47' W 080°11'0 0.0
2019-Oct-14 19:00N 25°47' W 080°11'0 0.0
2019-Oct-14 18:30N 25°47' W 080°11'0 0.0
2019-Oct-14 18:00N 25°47' W 080°11'0 0.0
2019-Oct-14 17:30N 25°47' W 080°11'0 0.0
2019-Oct-14 17:00N 25°47' W 080°11'0 0.0
2019-Oct-14 16:30N 25°47' W 080°11'0 0.0
2019-Oct-14 16:00N 25°47' W 080°11'0 0.0
2019-Oct-14 15:30N 25°47' W 080°11'0 0.0
2019-Oct-14 15:00N 25°47' W 080°11'0 0.0
2019-Oct-14 14:27N 25°47' W 080°11'0 0.0
2019-Oct-14 14:00N 25°47' W 080°11'0 0.0
2019-Oct-14 13:30N 25°47' W 080°11'0 0.0
2019-Oct-14 13:00N 25°47' W 080°11'0 0.0
2019-Oct-14 12:30N 25°47' W 080°11'0 0.0
2019-Oct-14 12:00N 25°47' W 080°11'0 0.0
2019-Oct-14 11:30N 25°47' W 080°11'0 0.0
2019-Oct-14 11:00N 25°47' W 080°11'0 0.0
2019-Oct-14 10:30N 25°47' W 080°11'0 0.0
2019-Oct-14 10:00N 25°47' W 080°11'0 0.0
2019-Oct-14 09:30N 25°47' W 080°11'1 2.4
2019-Oct-14 09:00N 25°46' W 080°09'5 9.5
2019-Oct-14 08:30N 25°46' W 080°04'5 9.1
2019-Oct-14 08:00N 25°44' W 079°60'815.6
2019-Oct-14 07:30N 25°36' W 079°58'815.1
2019-Oct-14 07:00N 25°29' W 079°55'49213.5
2019-Oct-12 18:32N 20°29' W 086°59'0 0.0
2019-Oct-12 18:29N 20°29' W 086°59'0 0.0
2019-Oct-12 17:59N 20°29' W 086°59'0 0.0
2019-Oct-12 17:29N 20°29' W 086°59'0 0.0
2019-Oct-12 16:59N 20°29' W 086°59'0 0.0
2019-Oct-12 16:29N 20°29' W 086°59'0 0.0
2019-Oct-12 15:59N 20°29' W 086°59'0 0.0
2019-Oct-12 15:29N 20°29' W 086°59'0 0.0
2019-Oct-12 14:59N 20°29' W 086°59'0 0.0
2019-Oct-12 14:29N 20°29' W 086°59'0 0.0
2019-Oct-12 13:59N 20°29' W 086°59'0 0.0
2019-Oct-12 13:29N 20°29' W 086°59'0 0.0
2019-Oct-12 12:59N 20°29' W 086°59'0 0.0
2019-Oct-12 12:29N 20°29' W 086°59'0 0.0
2019-Oct-12 11:56N 20°29' W 086°59'0 0.5
2019-Oct-12 11:30N 20°29' W 086°59'4 8.4
2019-Oct-12 11:00N 20°33' W 086°59'611.9
2019-Oct-12 10:30N 20°38' W 086°55'34414.0
2019-Oct-11 10:00N 24°00' W 081°54'13512.0 030 / 111012.010.8 26.0
2019-Oct-10 22:43N 25°27' W 080°00'313.7
2019-Oct-10 22:29N 25°30' W 080°00'714.3
2019-Oct-10 22:01N 25°37' W 080°00'713.7
2019-Oct-10 21:30N 25°44' W 080°02'511.0
2019-Oct-10 21:01N 25°46' W 080°08'3 6.0
2019-Oct-10 20:31N 25°47' W 080°11'0 0.8
2019-Oct-10 20:00N 25°47' W 080°11'0 0.0
2019-Oct-10 19:30N 25°47' W 080°11'0 0.0
2019-Oct-10 19:00N 25°47' W 080°11'0 0.0
2019-Oct-10 18:30N 25°47' W 080°11'0 0.0
2019-Oct-10 18:00N 25°47' W 080°11'0 0.0
2019-Oct-10 17:30N 25°47' W 080°11'0 0.0
2019-Oct-10 17:00N 25°47' W 080°11'0 0.0
2019-Oct-10 16:30N 25°47' W 080°11'0 0.0
2019-Oct-10 16:00N 25°47' W 080°11'0 0.0
2019-Oct-10 15:30N 25°47' W 080°11'0 0.0
2019-Oct-10 15:00N 25°47' W 080°11'0 0.0
2019-Oct-10 14:30N 25°47' W 080°11'0 0.0
2019-Oct-10 14:00N 25°47' W 080°11'0 0.0
2019-Oct-10 13:30N 25°47' W 080°11'0 0.0
2019-Oct-10 13:00N 25°47' W 080°11'0 0.0
2019-Oct-10 12:30N 25°47' W 080°11'0 0.0
2019-Oct-10 12:00N 25°47' W 080°11'0 0.0
2019-Oct-10 11:30N 25°47' W 080°11'0 0.0
2019-Oct-10 11:00N 25°47' W 080°11'0 0.0
2019-Oct-10 10:30N 25°47' W 080°11'0 0.0
2019-Oct-10 10:00N 25°47' W 080°11'0 0.0
2019-Oct-10 09:30N 25°47' W 080°11'0 0.0
2019-Oct-10 09:00N 25°47' W 080°11'0 0.0
2019-Oct-10 08:30N 25°47' W 080°11'2 3.5
2019-Oct-10 08:00N 25°46' W 080°09'510.0
2019-Oct-10 07:31N 25°47' W 080°03'611.3
2019-Oct-10 07:00N 25°49' W 079°58'713.8
2019-Oct-10 06:30N 25°53' W 079°51'714.5
2019-Oct-10 06:00N 25°57' W 079°45'815.6
2019-Oct-10 05:30N 26°01' W 079°37'917.9
2019-Oct-10 05:00N 26°06' W 079°29'3718.5
2019-Oct-10 03:00N 26°12' W 078°48'122 6.8 210 / 61015.0 25.023.6
2019-Oct-09 09:00N 25°42' W 076°36'39917.4 190 / 141014.010.8 26.024.6
2019-Oct-08 10:00N 26°54' W 069°18'18423.0 140 / 151017.010.8 25.0
2019-Oct-08 02:00N 27°24' W 065°54'79319.3 120 / 211019.0 5.4 25.023.6
2019-Oct-06 09:00N 29°48' W 051°06'49819.9 240 / 141014.010.8 26.024.6
2019-Oct-05 08:00N 31°12' W 041°36'   220 / 241020.010.8 23.0

Dump ship's entire track history